Time;durP1;ratioP1;P1;durP2;ratioP2;P2;SDS_P1;SDS_P2;PMS_P1;PMS_P2;Temp;Humidity;BMP_temperature;BMP_pressure;BME280_temperature;BME280_humidity;BME280_pressure;Samples;Min_cycle;Max_cycle;Signal;HPM_P1;HPM_P2
2021/12/22 00:01:04;;;;;;;26.90;12.63;;;;;;;-2.77;100.00;101234.03;5137198;27;20158;-74
2021/12/22 00:03:32;;;;;;;25.33;13.35;;;;;;;-2.81;100.00;101232.22;5136347;27;20099;-74
2021/12/22 00:06:04;;;;;;;27.40;12.73;;;;;;;-3.04;100.00;101232.00;5136859;27;20039;-74
2021/12/22 00:08:33;;;;;;;25.08;12.25;;;;;;;-3.09;100.00;101233.69;5135890;27;20164;-74
2021/12/22 00:11:01;;;;;;;25.48;12.55;;;;;;;-3.07;100.00;101240.69;5137009;27;20046;-73
2021/12/22 00:13:30;;;;;;;26.73;12.77;;;;;;;-3.19;100.00;101243.13;5137420;27;20055;-73
2021/12/22 00:15:58;;;;;;;27.45;12.18;;;;;;;-2.89;100.00;101238.28;5136918;27;20069;-74
2021/12/22 00:18:26;;;;;;;29.73;12.48;;;;;;;-2.80;100.00;101241.81;5137247;27;20092;-74
2021/12/22 00:20:54;;;;;;;28.35;13.20;;;;;;;-2.80;100.00;101249.66;5136626;27;20071;-74
2021/12/22 00:23:24;;;;;;;32.22;14.63;;;;;;;-2.84;100.00;101256.59;5136951;27;20058;-74
2021/12/22 00:25:53;;;;;;;27.75;12.90;;;;;;;-3.00;100.00;101260.75;5136763;27;20043;-74
2021/12/22 00:28:21;;;;;;;27.42;12.48;;;;;;;-3.04;100.00;101260.72;5135241;27;20055;-73
2021/12/22 00:30:50;;;;;;;27.52;12.02;;;;;;;-3.09;100.00;101265.00;5135377;27;20078;-75
2021/12/22 00:33:19;;;;;;;25.55;13.38;;;;;;;-3.13;100.00;101266.72;5136996;27;20047;-74
2021/12/22 00:35:47;;;;;;;23.50;12.48;;;;;;;-3.18;100.00;101273.63;5136599;27;20369;-74
2021/12/22 00:38:18;;;;;;;26.55;11.57;;;;;;;-3.19;100.00;101275.31;5136980;27;20472;-74
2021/12/22 00:40:50;;;;;;;23.23;12.55;;;;;;;-3.17;100.00;101268.41;5136337;27;20053;-74
2021/12/22 00:43:19;;;;;;;25.02;12.80;;;;;;;-3.27;100.00;101268.28;5135935;27;20472;-76
2021/12/22 00:45:55;;;;;;;22.70;11.82;;;;;;;-3.18;100.00;101273.63;5136145;27;20050;-76
2021/12/22 00:48:24;;;;;;;21.92;11.30;;;;;;;-3.34;100.00;101287.31;5136651;27;20480;-76
2021/12/22 00:50:52;;;;;;;25.10;11.95;;;;;;;-3.43;100.00;101276.78;5136351;27;20053;-76
2021/12/22 00:53:21;;;;;;;23.10;11.80;;;;;;;-3.47;100.00;101279.34;5136662;27;20039;-76
2021/12/22 00:55:51;;;;;;;23.98;11.18;;;;;;;-3.51;100.00;101280.16;5136174;27;20043;-75
2021/12/22 00:58:20;;;;;;;24.25;11.00;;;;;;;-3.43;100.00;101282.00;5136229;27;20121;-75
2021/12/22 01:00:49;;;;;;;21.45;10.98;;;;;;;-3.56;100.00;101289.66;5135947;27;20065;-77
2021/12/22 01:03:19;;;;;;;22.77;10.85;;;;;;;-3.54;100.00;101294.88;5136558;27;20433;-76
2021/12/22 01:05:48;;;;;;;21.02;10.38;;;;;;;-3.47;100.00;101294.13;5135858;27;20047;-76
2021/12/22 01:08:16;;;;;;;20.23;10.85;;;;;;;-3.49;100.00;101298.41;5136862;27;20403;-76
2021/12/22 01:10:45;;;;;;;17.70;10.13;;;;;;;-3.36;100.00;101295.13;5136268;27;20043;-76
2021/12/22 01:13:15;;;;;;;21.20;10.25;;;;;;;-3.32;100.00;101298.66;5135031;27;20043;-76
2021/12/22 01:15:44;;;;;;;21.88;10.38;;;;;;;-3.41;100.00;101295.91;5136209;27;20039;-76
2021/12/22 01:18:15;;;;;;;22.05;10.52;;;;;;;-3.50;100.00;101302.75;5135839;27;20047;-75
2021/12/22 01:21:02;;;;;;;21.50;10.98;;;;;;;-3.53;100.00;101307.06;5137862;27;20050;-75
2021/12/22 01:23:34;;;;;;;19.20;10.18;;;;;;;-3.53;100.00;101313.16;5134744;27;20059;-75
2021/12/22 01:26:04;;;;;;;23.73;11.40;;;;;;;-3.35;100.00;101306.44;5135648;27;20049;-76
2021/12/22 01:28:40;;;;;;;20.35;11.32;;;;;;;-3.50;100.00;101307.09;5135718;27;20035;-76
2021/12/22 01:31:14;;;;;;;25.00;11.82;;;;;;;-3.52;100.00;101299.25;5135835;27;20046;-77
2021/12/22 01:33:42;;;;;;;21.60;11.73;;;;;;;-3.36;100.00;101310.78;5135934;27;20070;-77
2021/12/22 01:36:10;;;;;;;24.38;11.85;;;;;;;-3.47;100.00;101310.66;5135420;27;20049;-75
2021/12/22 01:38:39;;;;;;;24.23;11.00;;;;;;;-3.37;100.00;101308.16;5134723;27;20460;-75
2021/12/22 01:41:09;;;;;;;20.48;11.40;;;;;;;-3.32;100.00;101306.47;5135053;27;20043;-75
2021/12/22 01:43:39;;;;;;;21.83;10.68;;;;;;;-3.42;100.00;101299.38;5135376;27;20039;-75
2021/12/22 01:46:31;;;;;;;22.05;10.80;;;;;;;-3.42;100.00;101302.00;5135251;27;20039;-75
2021/12/22 01:49:11;;;;;;;21.35;11.30;;;;;;;-3.49;100.00;101296.69;5135269;27;20043;-75
2021/12/22 01:51:50;;;;;;;20.73;10.32;;;;;;;-3.43;100.00;101298.50;5135698;27;20476;-76
2021/12/22 01:54:30;;;;;;;22.42;11.23;;;;;;;-3.36;100.00;101302.97;5134407;27;20043;-76
2021/12/22 01:57:01;;;;;;;19.48;9.90;;;;;;;-3.40;100.00;101302.88;5134756;27;20043;-76
2021/12/22 01:59:31;;;;;;;20.92;10.55;;;;;;;-3.44;100.00;101302.00;5135248;27;20043;-76
2021/12/22 02:02:02;;;;;;;19.13;9.77;;;;;;;-3.35;100.00;101298.63;5134997;27;20126;-76
2021/12/22 02:04:30;;;;;;;17.25;9.77;;;;;;;-3.27;100.00;101302.22;5135143;27;20064;-76
2021/12/22 02:06:58;;;;;;;21.73;10.60;;;;;;;-3.22;100.00;101309.22;5134621;27;20070;-76
2021/12/22 02:09:32;;;;;;;20.38;9.32;;;;;;;-3.19;100.00;101308.38;5135054;27;20039;-77
2021/12/22 02:12:00;;;;;;;18.92;10.15;;;;;;;-3.17;100.00;101306.69;5134873;27;20423;-76
2021/12/22 02:14:29;;;;;;;16.65;9.48;;;;;;;-3.13;100.00;101305.84;5135079;27;20067;-75
2021/12/22 02:16:58;;;;;;;22.15;10.80;;;;;;;-3.12;100.00;101312.81;5134378;27;20043;-76
2021/12/22 02:19:27;;;;;;;19.13;9.45;;;;;;;-3.09;100.00;101309.38;5134836;27;20404;-76
2021/12/22 02:21:58;;;;;;;19.95;10.38;;;;;;;-3.10;100.00;101302.41;5134672;27;20039;-77
2021/12/22 02:24:27;;;;;;;21.05;10.05;;;;;;;-3.03;100.00;101309.47;5134895;27;20051;-78
2021/12/22 02:27:03;;;;;;;20.33;9.85;;;;;;;-3.01;100.00;101308.59;5134389;27;20101;-77
2021/12/22 02:29:37;;;;;;;18.88;9.52;;;;;;;-3.18;100.00;101300.59;5134607;27;20069;-78
2021/12/22 02:32:11;;;;;;;19.77;10.32;;;;;;;-3.22;100.00;101303.13;5133169;27;20055;-77
2021/12/22 02:34:43;;;;;;;18.80;9.02;;;;;;;-3.27;100.00;101302.22;5134576;27;20054;-76
2021/12/22 02:37:16;;;;;;;19.75;9.98;;;;;;;-3.25;100.00;101306.59;5134390;27;20051;-76
2021/12/22 02:39:48;;;;;;;17.67;9.45;;;;;;;-3.21;100.00;101304.88;5134652;27;20066;-76
2021/12/22 02:42:20;;;;;;;21.02;8.88;;;;;;;-3.21;100.00;101310.09;5134327;27;20043;-74
2021/12/22 02:44:49;;;;;;;17.27;8.90;;;;;;;-3.13;100.00;101303.25;5134291;27;20476;-74
2021/12/22 02:47:19;;;;;;;16.63;8.90;;;;;;;-3.09;100.00;101304.16;5133995;27;20047;-74
2021/12/22 02:49:48;;;;;;;16.73;8.80;;;;;;;-3.07;100.00;101292.91;5133952;27;20039;-74
2021/12/22 02:52:20;;;;;;;18.70;9.32;;;;;;;-3.04;100.00;101298.13;5134560;27;20043;-74
2021/12/22 02:54:53;;;;;;;18.55;9.52;;;;;;;-3.00;100.00;101299.03;5134252;27;20043;-74
2021/12/22 02:57:30;;;;;;;16.83;8.45;;;;;;;-3.02;100.00;101304.25;5134493;27;20041;-74
2021/12/22 03:00:27;;;;;;;17.00;8.48;;;;;;;-3.00;100.00;101302.53;5133780;27;20046;-74
2021/12/22 03:03:05;;;;;;;16.27;8.38;;;;;;;-2.88;100.00;101305.31;5134330;27;20043;-74
2021/12/22 03:05:34;;;;;;;17.48;8.68;;;;;;;-2.75;100.00;101316.75;5134183;27;20065;-73
2021/12/22 03:08:04;;;;;;;19.60;9.35;;;;;;;-2.66;100.00;101315.97;5133935;27;20434;-79
2021/12/22 03:10:33;;;;;;;13.52;7.85;;;;;;;-2.63;100.00;101326.44;5134153;27;20043;-79
2021/12/22 03:13:04;;;;;;;17.67;8.63;;;;;;;-2.39;100.00;101321.47;5133773;27;20047;-79
2021/12/22 03:15:33;;;;;;;18.20;8.57;;;;;;;-2.49;100.00;101319.63;5133843;28;20046;-73
2021/12/22 03:18:03;;;;;;;19.50;8.93;;;;;;;-2.63;100.00;101326.44;5133699;28;20050;-73
2021/12/22 03:20:31;;;;;;;17.92;9.23;;;;;;;-2.69;100.00;101322.03;5134006;28;20471;-73
2021/12/22 03:23:00;;;;;;;18.30;9.27;;;;;;;-2.60;100.00;101321.28;5133356;28;20047;-73
2021/12/22 03:25:29;;;;;;;17.50;8.25;;;;;;;-2.46;100.00;101314.44;5134120;28;20047;-73
2021/12/22 03:28:02;;;;;;;16.48;8.50;;;;;;;-2.17;100.00;101324.28;5133630;27;20142;-73
2021/12/22 03:30:31;;;;;;;16.50;8.88;;;;;;;-2.15;100.00;101335.63;5134172;28;20107;-73
2021/12/22 03:32:59;;;;;;;15.02;8.45;;;;;;;-2.33;100.00;101339.81;5133647;28;20080;-73
2021/12/22 03:35:35;;;;;;;17.67;8.32;;;;;;;-2.34;100.00;101345.03;5134382;28;20054;-73
2021/12/22 03:38:03;;;;;;;16.17;8.50;;;;;;;-2.29;100.00;101345.09;5133577;28;20035;-72
2021/12/22 03:40:33;;;;;;;16.45;8.30;;;;;;;-2.50;100.00;101337.91;5133526;28;20133;-72
2021/12/22 03:43:01;;;;;;;17.77;8.98;;;;;;;-2.56;100.00;101325.66;5132143;28;20512;-73
2021/12/22 03:45:29;;;;;;;17.13;8.43;;;;;;;-2.62;100.00;101326.44;5133685;28;20043;-73
2021/12/22 03:47:57;;;;;;;14.93;8.13;;;;;;;-2.49;100.00;101330.09;5133517;28;20082;-74
2021/12/22 03:50:26;;;;;;;16.38;8.20;;;;;;;-2.34;100.00;101335.44;5133779;28;20039;-72
2021/12/22 03:52:54;;;;;;;14.00;7.63;;;;;;;-2.35;100.00;101338.94;5133757;28;20047;-76
2021/12/22 03:55:22;;;;;;;15.80;8.45;;;;;;;-2.17;100.00;101332.13;5133682;28;20043;-75
2021/12/22 03:57:51;;;;;;;16.38;8.20;;;;;;;-2.09;100.00;101338.31;5133404;27;20468;-76
2021/12/22 04:00:20;;;;;;;15.57;8.75;;;;;;;-2.26;100.00;101339.88;5132959;28;20039;-76
2021/12/22 04:02:48;;;;;;;16.58;8.90;;;;;;;-2.43;100.00;101340.59;5135570;27;20092;-75
2021/12/22 04:05:18;;;;;;;19.17;9.77;;;;;;;-2.59;100.00;101349.16;5137033;27;20047;-78
2021/12/22 04:07:47;;;;;;;19.63;10.70;;;;;;;-2.44;100.00;101353.63;5137404;27;20047;-77
2021/12/22 04:10:22;;;;;;;15.07;8.02;;;;;;;-2.43;100.00;101350.16;5137109;27;20491;-76
2021/12/22 04:12:53;;;;;;;17.70;9.95;;;;;;;-2.44;100.00;101349.28;5135804;27;20095;-78
2021/12/22 04:15:24;;;;;;;20.00;10.60;;;;;;;-2.58;100.00;101340.44;5137078;27;20051;-79
2021/12/22 04:17:53;;;;;;;17.85;9.43;;;;;;;-2.57;100.00;101336.09;5137431;27;20047;-80
2021/12/22 04:20:21;;;;;;;18.02;9.55;;;;;;;-2.53;100.00;101343.97;5136773;27;20039;-78
2021/12/22 04:22:50;;;;;;;20.10;9.65;;;;;;;-2.64;100.00;101345.59;5137067;27;20043;-74
2021/12/22 04:25:20;;;;;;;24.40;10.43;;;;;;;-2.57;100.00;101347.41;5138412;27;20355;-74
2021/12/22 04:27:50;;;;;;;19.23;10.02;;;;;;;-2.63;100.00;101348.22;5138982;27;20047;-74
2021/12/22 04:30:21;;;;;;;18.83;10.15;;;;;;;-2.56;100.00;101348.28;5138204;27;20047;-75
2021/12/22 04:32:49;;;;;;;19.05;9.55;;;;;;;-2.56;100.00;101349.16;5138764;27;20039;-74
2021/12/22 04:35:20;;;;;;;18.52;9.40;;;;;;;-2.57;100.00;101347.41;5136551;27;20042;-74
2021/12/22 04:37:48;;;;;;;18.05;8.50;;;;;;;-2.57;100.00;101350.03;5136779;27;20472;-74
2021/12/22 04:40:17;;;;;;;20.35;9.98;;;;;;;-2.63;100.00;101357.78;5136534;27;20088;-75
2021/12/22 04:42:46;;;;;;;17.90;9.52;;;;;;;-2.66;100.00;101355.16;5137157;27;20051;-76
2021/12/22 04:45:15;;;;;;;19.70;9.15;;;;;;;-2.63;100.00;101358.66;5136803;27;20498;-78
2021/12/22 04:47:47;;;;;;;17.10;9.45;;;;;;;-2.64;100.00;101361.25;5137196;27;20038;-79
2021/12/22 04:50:18;;;;;;;21.88;10.32;;;;;;;-2.65;100.00;101362.13;5136872;27;20043;-79
2021/12/22 04:52:54;;;;;;;19.00;9.50;;;;;;;-2.69;100.00;101363.84;5170674;27;20047;-80
2021/12/22 04:55:25;;;;;;;19.95;9.98;;;;;;;-2.70;100.00;101366.41;5136591;27;20043;-80
2021/12/22 04:57:55;;;;;;;21.70;10.07;;;;;;;-2.76;100.00;101361.13;5136848;27;20049;-79
2021/12/22 05:00:26;;;;;;;19.83;9.80;;;;;;;-2.77;100.00;101362.88;5136812;27;20407;-79
2021/12/22 05:02:57;;;;;;;21.35;9.55;;;;;;;-2.75;100.00;101368.09;5136975;27;20047;-79
2021/12/22 05:05:26;;;;;;;18.50;9.40;;;;;;;-2.71;100.00;101370.75;5136453;27;20088;-79
2021/12/22 05:07:55;;;;;;;19.05;9.45;;;;;;;-2.74;100.00;101360.28;5136227;27;20404;-78
2021/12/22 05:10:25;;;;;;;19.10;9.73;;;;;;;-2.52;100.00;101361.38;5136177;27;20078;-78
2021/12/22 05:12:53;;;;;;;16.75;9.88;;;;;;;-2.22;100.00;101355.63;5135805;27;20103;-74
2021/12/22 05:15:25;;;;;;;18.25;9.90;;;;;;;-2.27;100.00;101364.28;5134697;27;20215;-75
2021/12/22 05:20:42;;;;;;;18.02;10.48;;;;;;;-2.37;100.00;101361.56;5135967;27;20050;-75
2021/12/22 05:23:18;;;;;;;16.58;9.30;;;;;;;-2.46;100.00;101361.47;5135212;27;20065;-75
2021/12/22 05:25:46;;;;;;;22.42;10.13;;;;;;;-2.55;100.00;101370.94;5135900;27;20138;-72
2021/12/22 05:28:15;;;;;;;19.67;9.85;;;;;;;-2.55;100.00;101370.94;5135277;27;20043;-73
2021/12/22 05:30:46;;;;;;;20.15;9.05;;;;;;;-2.59;100.00;101372.66;5135814;27;20062;-72
2021/12/22 05:33:15;;;;;;;18.33;9.20;;;;;;;-2.62;100.00;101369.97;5135252;27;20480;-73
2021/12/22 05:35:44;;;;;;;18.48;9.68;;;;;;;-2.56;100.00;101372.69;5135708;27;20091;-74
2021/12/22 05:38:13;;;;;;;18.92;9.32;;;;;;;-2.56;100.00;101371.81;5135435;27;20488;-76
2021/12/22 05:40:41;;;;;;;21.50;8.85;;;;;;;-2.51;100.00;101367.50;5135280;27;20047;-73
2021/12/22 05:43:09;;;;;;;19.45;8.68;;;;;;;-2.49;100.00;101371.91;5135255;27;20422;-78
2021/12/22 05:45:38;;;;;;;18.15;9.30;;;;;;;-2.24;100.00;101377.34;5135454;27;20046;-78
2021/12/22 05:48:06;;;;;;;18.25;9.35;;;;;;;-2.02;100.00;101389.78;5135118;27;20046;-80
2021/12/22 05:50:35;;;;;;;17.45;9.07;;;;;;;-2.07;100.00;101391.47;5135515;27;20088;-76
2021/12/22 05:53:05;;;;;;;17.40;9.15;;;;;;;-2.36;100.00;101380.72;5135432;27;20051;-78
2021/12/22 05:55:33;;;;;;;21.05;10.23;;;;;;;-2.36;100.00;101386.81;5135476;27;20050;-77
2021/12/22 05:58:01;;;;;;;24.70;10.85;;;;;;;-2.39;100.00;101394.66;5135240;27;20039;-75
2021/12/22 06:00:30;;;;;;;22.00;9.60;;;;;;;-2.14;100.00;101400.97;5135099;27;20081;-75
2021/12/22 06:02:58;;;;;;;18.83;10.07;;;;;;;-2.37;100.00;101397.28;5135959;27;20091;-77
2021/12/22 06:05:26;;;;;;;16.42;8.38;;;;;;;-2.46;100.00;101416.34;5134868;27;20067;-73
2021/12/22 06:07:55;;;;;;;22.75;11.07;;;;;;;-2.44;100.00;101409.38;5135046;27;20036;-73
2021/12/22 06:10:24;;;;;;;20.25;9.55;;;;;;;-2.38;100.00;101411.19;5134737;27;20410;-75
2021/12/22 06:12:53;;;;;;;18.23;8.98;;;;;;;-2.31;100.00;101413.03;5135188;27;20146;-75
2021/12/22 06:15:21;;;;;;;20.20;8.93;;;;;;;-2.30;100.00;101420.00;5134723;27;20096;-72
2021/12/22 06:17:55;;;;;;;18.70;9.05;;;;;;;-2.23;100.00;101406.13;5134836;27;20047;-72
2021/12/22 06:20:24;;;;;;;18.60;8.73;;;;;;;-2.05;100.00;101410.66;5134470;27;20117;-73
2021/12/22 06:22:53;;;;;;;19.55;8.75;;;;;;;-2.17;100.00;101421.00;5134851;27;20035;-72
2021/12/22 06:25:24;;;;;;;16.50;8.63;;;;;;;-2.19;100.00;101420.13;5134267;27;20046;-73
2021/12/22 06:27:52;;;;;;;15.40;8.10;;;;;;;-2.16;100.00;101422.75;5134532;27;20092;-75
2021/12/22 06:30:21;;;;;;;17.95;8.65;;;;;;;-2.02;100.00;101423.78;5134005;27;20488;-75
2021/12/22 06:32:49;;;;;;;19.38;9.45;;;;;;;-1.97;100.00;101429.91;5134715;27;20118;-75
2021/12/22 06:35:17;;;;;;;19.25;9.60;;;;;;;-1.98;100.00;101432.53;5133974;27;20403;-75
2021/12/22 06:37:47;;;;;;;23.95;11.13;;;;;;;-1.93;100.00;101439.56;5134683;27;20391;-75
2021/12/22 06:40:16;;;;;;;20.27;10.60;;;;;;;-1.96;100.00;101439.50;5134123;27;20099;-75
2021/12/22 06:42:46;;;;;;;21.15;11.13;;;;;;;-2.11;100.00;101453.31;5134530;27;20082;-75
2021/12/22 06:45:15;;;;;;;22.33;11.00;;;;;;;-2.06;100.00;101455.97;5134123;27;20476;-75
2021/12/22 06:47:43;;;;;;;25.08;11.30;;;;;;;-2.09;100.00;101462.06;5134404;27;20043;-75
2021/12/22 06:50:12;;;;;;;24.08;11.40;;;;;;;-1.92;100.00;101458.75;5134028;27;20133;-73
2021/12/22 06:52:40;;;;;;;22.63;11.13;;;;;;;-2.06;100.00;101466.44;5134108;27;20039;-73
2021/12/22 06:55:08;;;;;;;22.85;10.68;;;;;;;-2.07;100.00;101464.69;5134258;27;20369;-73
2021/12/22 06:57:37;;;;;;;21.15;10.68;;;;;;;-2.05;100.00;101468.19;5133897;27;20035;-71
2021/12/22 07:00:10;;;;;;;22.17;12.10;;;;;;;-2.21;100.00;101466.28;5134236;27;20043;-72
2021/12/22 07:02:39;;;;;;;22.27;11.20;;;;;;;-2.16;100.00;101455.00;5134257;27;20039;-71
2021/12/22 07:05:10;;;;;;;21.73;10.68;;;;;;;-2.27;100.00;101458.34;5134153;27;20117;-72
2021/12/22 07:07:39;;;;;;;21.00;10.27;;;;;;;-2.47;100.00;101460.75;5133676;27;20071;-71
2021/12/22 07:10:10;;;;;;;22.80;11.15;;;;;;;-2.28;100.00;101459.22;5133970;27;20082;-71
2021/12/22 07:12:40;;;;;;;22.45;10.57;;;;;;;-2.18;100.00;101466.31;5134134;27;20046;-73
2021/12/22 07:15:12;;;;;;;24.25;11.85;;;;;;;-2.29;100.00;101467.91;5134207;27;20132;-75
2021/12/22 07:17:42;;;;;;;18.50;10.57;;;;;;;-2.36;100.00;101472.19;5134160;28;20050;-73
2021/12/22 07:20:11;;;;;;;19.15;10.68;;;;;;;-2.37;100.00;101471.31;5133800;28;20369;-78
2021/12/22 07:22:40;;;;;;;17.75;10.52;;;;;;;-2.01;100.00;101469.97;5133448;28;20451;-76
2021/12/22 07:25:10;;;;;;;19.70;9.55;;;;;;;-1.92;100.00;101471.81;5134077;28;20092;-78
2021/12/22 07:27:38;;;;;;;22.05;10.95;;;;;;;-2.17;100.00;101468.06;5133752;28;20043;-72
2021/12/22 07:30:08;;;;;;;18.23;10.32;;;;;;;-2.26;100.00;101475.78;5133932;27;20047;-72
2021/12/22 07:32:38;;;;;;;20.30;10.40;;;;;;;-1.94;100.00;101482.22;5133389;28;20084;-72
2021/12/22 07:35:10;;;;;;;20.55;11.00;;;;;;;-2.02;100.00;101483.91;5132578;28;20039;-72
2021/12/22 07:37:47;;;;;;;21.08;10.82;;;;;;;-1.97;100.00;101484.84;5135292;27;20039;-72
2021/12/22 07:40:19;;;;;;;20.60;10.73;;;;;;;-1.91;100.00;101487.53;5137727;27;20043;-73
2021/12/22 07:42:47;;;;;;;22.95;10.95;;;;;;;-1.81;100.00;101486.75;5138174;27;20050;-73
2021/12/22 07:45:16;;;;;;;21.65;11.50;;;;;;;-1.74;100.00;101485.06;5137301;27;20487;-73
2021/12/22 07:47:45;;;;;;;29.67;11.98;;;;;;;-1.77;100.00;101490.25;5137758;27;20047;-72
2021/12/22 07:50:14;;;;;;;21.70;12.30;;;;;;;-1.87;100.00;101494.53;5137848;27;20049;-73
2021/12/22 07:52:42;;;;;;;21.55;12.00;;;;;;;-1.85;100.00;101498.03;5137783;27;20118;-73
2021/12/22 07:55:10;;;;;;;24.45;11.95;;;;;;;-1.66;100.00;101498.22;5137640;27;20039;-73
2021/12/22 07:57:38;;;;;;;25.52;12.43;;;;;;;-1.52;100.00;101499.22;5137322;27;20135;-73
2021/12/22 08:00:08;;;;;;;29.55;13.32;;;;;;;-1.52;100.00;101491.38;5137583;27;20082;-73
2021/12/22 08:02:37;;;;;;;25.92;12.38;;;;;;;-1.61;100.00;101496.53;5137319;27;20122;-72
2021/12/22 08:05:07;;;;;;;26.35;13.27;;;;;;;-1.67;100.00;101499.06;5137452;27;20476;-75
2021/12/22 08:07:37;;;;;;;25.73;13.30;;;;;;;-1.64;100.00;101501.72;5137022;27;20863;-71
2021/12/22 08:10:06;;;;;;;23.92;12.55;;;;;;;-1.61;100.00;101505.25;5137035;27;20047;-71
2021/12/22 08:12:35;;;;;;;26.98;12.93;;;;;;;-1.53;100.00;101507.94;5136712;27;20126;-70
2021/12/22 08:15:05;;;;;;;18.85;10.57;;;;;;;-1.52;100.00;101507.97;5137300;27;20051;-73
2021/12/22 08:17:34;;;;;;;16.30;8.75;;;;;;;-1.48;100.00;101514.09;5138916;27;20062;-76
2021/12/22 08:20:03;;;;;;;14.13;7.88;;;;;;;-1.45;100.00;101506.25;5140099;27;20043;-76
2021/12/22 08:22:35;;;;;;;18.98;9.40;;;;;;;-1.45;100.00;101514.09;5137078;27;20087;-77
2021/12/22 08:25:06;;;;;;;18.42;8.43;;;;;;;-1.34;100.00;101511.59;5136839;27;20046;-79
2021/12/22 08:27:35;;;;;;;20.02;9.15;;;;;;;-1.32;100.00;101513.38;5136594;27;20050;-78
2021/12/22 08:30:04;;;;;;;18.65;9.65;;;;;;;-1.18;100.00;101530.03;5137036;27;20039;-78
2021/12/22 08:32:33;;;;;;;21.33;10.68;;;;;;;-1.20;100.00;101526.53;5136652;27;20472;-72
2021/12/22 08:35:03;;;;;;;19.90;10.18;;;;;;;-1.20;100.00;101525.66;5136825;27;20491;-71
2021/12/22 08:40:20;;;;;;;21.08;9.93;;;;;;;-1.23;100.00;101537.00;5136230;27;20035;-78
2021/12/22 08:42:49;;;;;;;19.85;9.55;;;;;;;-1.12;100.00;101536.22;5133672;27;20491;-71
2021/12/22 08:45:18;;;;;;;18.38;9.13;;;;;;;-1.08;100.00;101535.34;5136484;27;20039;-72
2021/12/22 08:47:47;;;;;;;22.88;10.25;;;;;;;-0.98;100.00;101534.56;5136223;27;20039;-74
2021/12/22 08:50:18;;;;;;;22.17;10.30;;;;;;;-0.95;100.00;101542.47;5136897;27;20106;-74
2021/12/22 08:52:47;;;;;;;18.02;9.88;;;;;;;-0.97;100.00;101544.16;5136504;27;20039;-74
2021/12/22 08:55:15;;;;;;;19.13;9.90;;;;;;;-0.94;100.00;101534.63;5136510;27;20067;-72
2021/12/22 08:57:45;;;;;;;21.35;9.20;;;;;;;-0.92;100.00;101542.47;5135940;27;20070;-71
2021/12/22 09:00:15;;;;;;;19.55;10.07;;;;;;;-0.99;100.00;101543.28;5136248;27;20470;-71
2021/12/22 09:02:45;;;;;;;22.48;10.32;;;;;;;-0.90;100.00;101543.34;5136307;27;20047;-72
2021/12/22 09:05:13;;;;;;;21.05;9.63;;;;;;;-0.90;100.00;101545.97;5135946;27;20096;-70
2021/12/22 09:07:41;;;;;;;21.08;10.65;;;;;;;-0.88;100.00;101549.47;5135840;27;20055;-73
2021/12/22 09:10:10;;;;;;;22.35;10.95;;;;;;;-0.73;100.00;101548.72;5135742;27;20043;-72
2021/12/22 09:12:39;;;;;;;23.30;10.93;;;;;;;-0.42;100.00;101544.53;5136027;27;20039;-70
2021/12/22 09:15:09;;;;;;;20.00;10.32;;;;;;;-0.47;100.00;101546.28;5135342;27;20047;-73
2021/12/22 09:17:37;;;;;;;19.20;8.63;;;;;;;-0.45;100.00;101544.53;5135835;27;20408;-72
2021/12/22 09:20:07;;;;;;;21.17;9.43;;;;;;;-0.49;100.00;101540.13;5135805;27;20118;-73
2021/12/22 09:22:36;;;;;;;21.52;9.77;;;;;;;-0.54;100.00;101536.59;5137970;27;20043;-73
2021/12/22 09:25:05;;;;;;;17.60;8.68;;;;;;;-0.46;100.00;101543.66;5136821;27;20035;-72
2021/12/22 09:27:34;;;;;;;16.50;9.32;;;;;;;-0.46;100.00;101546.28;5133866;27;20492;-72
2021/12/22 09:30:02;;;;;;;21.48;9.73;;;;;;;-0.23;100.00;101546.38;5135845;27;20039;-74
2021/12/22 09:32:32;;;;;;;17.13;8.95;;;;;;;-0.37;100.00;101545.44;5135494;27;20130;-74
2021/12/22 09:35:00;;;;;;;15.80;8.90;;;;;;;-0.30;99.76;101544.59;5135979;27;20039;-75
2021/12/22 09:37:29;;;;;;;18.42;9.35;;;;;;;-0.33;99.46;101549.81;5135362;27;20046;-74
2021/12/22 09:39:57;;;;;;;18.08;9.00;;;;;;;-0.30;100.00;101549.81;5134360;27;20055;-73
2021/12/22 09:42:25;;;;;;;21.88;9.40;;;;;;;-0.27;100.00;101551.63;5135404;27;20055;-73
2021/12/22 09:44:53;;;;;;;19.92;9.90;;;;;;;-0.26;100.00;101546.38;5135662;27;20042;-74
2021/12/22 09:47:28;;;;;;;20.73;9.23;;;;;;;-0.22;100.00;101547.25;5135429;27;20035;-74
2021/12/22 09:50:08;;;;;;;17.42;9.43;;;;;;;-0.23;100.00;101542.88;5135368;27;20366;-68
2021/12/22 09:52:39;;;;;;;22.20;9.82;;;;;;;-0.27;100.00;101542.00;5134859;27;20039;-69
2021/12/22 09:55:09;;;;;;;16.70;9.18;;;;;;;-0.20;100.00;101541.13;5135450;27;20113;-69
2021/12/22 09:57:38;;;;;;;19.08;9.60;;;;;;;-0.12;100.00;101528.94;5135135;27;20039;-71
2021/12/22 10:00:08;;;;;;;21.40;9.57;;;;;;;-0.11;99.25;101537.69;5134574;27;20039;-71
2021/12/22 10:02:36;;;;;;;17.88;9.13;;;;;;;-0.12;99.01;101528.94;5135425;27;20092;-70
2021/12/22 10:05:07;;;;;;;19.98;8.80;;;;;;;0.04;98.92;101534.25;5134803;27;20493;-71
2021/12/22 10:07:38;;;;;;;18.23;8.77;;;;;;;0.04;99.42;101521.13;5134524;27;20040;-73
2021/12/22 10:10:09;;;;;;;19.92;9.70;;;;;;;0.10;98.50;101529.91;5134473;27;20388;-72
2021/12/22 10:12:38;;;;;;;18.95;9.75;;;;;;;0.07;97.72;101527.25;5134826;27;20046;-72
2021/12/22 10:15:09;;;;;;;22.33;9.65;;;;;;;0.04;98.08;101527.25;5134697;27;20047;-71
2021/12/22 10:17:40;;;;;;;18.65;9.13;;;;;;;0.15;96.48;101524.66;5135237;27;20070;-72
2021/12/22 10:20:13;;;;;;;17.33;8.93;;;;;;;0.11;94.85;101528.16;5134853;27;20480;-71
2021/12/22 10:22:44;;;;;;;18.35;9.30;;;;;;;0.11;94.57;101530.78;5134579;27;20039;-72
2021/12/22 10:25:15;;;;;;;17.35;8.45;;;;;;;0.17;94.19;101520.28;5134649;27;20039;-71
2021/12/22 10:27:45;;;;;;;13.57;7.53;;;;;;;0.23;92.28;101525.56;5133605;27;20047;-72
2021/12/22 10:30:33;;;;;;;16.27;8.52;;;;;;;0.26;92.49;101520.31;5134776;27;20057;-71
2021/12/22 10:33:10;;;;;;;17.98;8.48;;;;;;;0.29;91.80;101525.59;5134525;27;20043;-71
2021/12/22 10:35:41;;;;;;;19.88;9.35;;;;;;;0.24;92.98;101527.31;5133591;27;20047;-72
2021/12/22 10:38:11;;;;;;;22.10;9.60;;;;;;;0.18;92.08;101522.03;5134716;27;20039;-73
2021/12/22 10:40:41;;;;;;;17.08;8.30;;;;;;;0.19;90.93;101519.44;5134454;27;20111;-72
2021/12/22 10:43:16;;;;;;;17.85;8.20;;;;;;;0.23;91.25;101517.69;5134488;27;20035;-71
2021/12/22 10:45:48;;;;;;;14.82;7.70;;;;;;;0.15;89.86;101516.78;5134088;27;20046;-71
2021/12/22 10:51:10;;;;;;;24.13;8.73;;;;;;;0.05;93.24;101509.75;5134933;27;20103;-71
2021/12/22 10:53:43;;;;;;;16.13;9.00;;;;;;;0.13;93.17;101508.03;5134301;27;20039;-72
2021/12/22 10:56:22;;;;;;;18.10;8.48;;;;;;;0.07;92.16;101514.13;5134577;27;20047;-70
2021/12/22 10:59:01;;;;;;;17.80;8.70;;;;;;;0.27;91.61;101503.69;5134396;27;20091;-71
2021/12/22 11:01:30;;;;;;;17.35;8.45;;;;;;;0.31;92.33;101508.09;5134593;27;20134;-72
2021/12/22 11:04:04;;;;;;;17.52;8.65;;;;;;;0.29;92.93;101504.59;5134335;27;20088;-72
2021/12/22 11:06:39;;;;;;;17.15;8.60;;;;;;;0.29;92.67;101504.59;5134160;27;20092;-73
2021/12/22 11:09:13;;;;;;;14.90;7.43;;;;;;;0.42;90.82;101511.59;5134209;27;20392;-71
2021/12/22 11:11:45;;;;;;;14.38;7.57;;;;;;;0.41;90.19;101494.09;5133862;27;20039;-72
2021/12/22 11:14:16;;;;;;;13.98;7.18;;;;;;;0.34;89.90;101496.69;5134322;27;20088;-71
2021/12/22 11:16:57;;;;;;;16.05;7.38;;;;;;;0.43;90.01;101491.47;5133735;27;20035;-72
2021/12/22 11:19:27;;;;;;;15.23;8.10;;;;;;;0.47;90.66;101490.59;5134261;27;20047;-71
2021/12/22 11:22:06;;;;;;;15.50;8.07;;;;;;;0.51;90.09;101484.47;5133953;27;20047;-72
2021/12/22 11:24:37;;;;;;;15.90;7.97;;;;;;;0.39;90.35;101487.97;5134322;27;20108;-72
2021/12/22 11:27:08;;;;;;;16.70;8.35;;;;;;;0.34;89.97;101481.81;5134000;27;20400;-72
2021/12/22 11:29:38;;;;;;;14.68;7.13;;;;;;;0.55;89.60;101484.47;5133804;27;20094;-72